ウダーチヌイ の空港の天気 - METARとTAF

Polyarny ( UERP / PYJ ) - ロシア ウダーチヌイ
飛行場実況気象(Metar)
観測時間05/28 10:30 YAKT (05/28 01:30 UTC)
風向・風速北西 3m/s 瞬間風速8m/s
視程10km以上
天気現象
全天の8割程度の雲 雲底高度 490m
全天を覆う雲 雲底高度 3050m
気温-2℃
湿度74%
気圧1005hPa
METARUERP 280130Z 31003G08MPS 9999 BKN016CB OVC100 M02/M06 Q1005 R35/290150 NOSIG RMK QFE710
過去の天気等 Google飛行場航空写真 Wunderground天気予報

過去48時間のMETAR

飛行場予報(TAF)
発表時間: 5/28 08:00 YAKT (5/27 23:00 UTC)
予報対象時間: 28日9時 YAKT ~ 29日9時 YAKT
風向・風速北北西 5m/s 瞬間風速 11m/s
視程10km以上
全天の8割程度の積乱雲 雲底高度 520m
全天を覆う雲 雲底高度 3050m
28日9時 YAKT ~ 28日18時 YAKT に一時的に
視程3000m
天気現象弱いしゅう雪雨
全天の8割程度の雲 雲底高度 210m
全天の8割程度の積乱雲 雲底高度 460m
全天を覆う雲 雲底高度 3050m
TAF UERP 272300Z 2800/2824 34005G11MPS 9999 BKN017CB OVC100
TEMPO 2800/2809 3000 -SHSNRA BKN007 BKN015CB OVC100